createdAt,value
2018-11-14T00:01:52.358Z,2.7
2018-11-14T00:06:54.488Z,2.5
2018-11-14T00:11:57.259Z,3.9
2018-11-14T00:16:59.253Z,3.1
2018-11-14T00:22:01.450Z,3.4
2018-11-14T00:27:03.748Z,2.4
2018-11-14T00:32:05.993Z,2.4
2018-11-14T00:37:08.422Z,2.3
2018-11-14T00:42:10.735Z,4.2
2018-11-14T00:47:12.864Z,4.3
2018-11-14T00:52:15.299Z,2.7
2018-11-14T00:57:17.443Z,4
2018-11-14T01:02:19.836Z,2.3
2018-11-14T01:07:21.996Z,3.4
2018-11-14T01:12:24.422Z,2.9
2018-11-14T01:17:27.130Z,2.7
2018-11-14T01:22:28.907Z,4.6
2018-11-14T01:27:31.330Z,5.4
2018-11-14T01:32:33.749Z,3.2
2018-11-14T01:37:35.903Z,4.6
2018-11-14T01:42:38.183Z,3.1
2018-11-14T01:47:40.439Z,3.1
2018-11-14T01:52:42.729Z,3.4
2018-11-14T01:57:44.956Z,3.8
2018-11-14T02:02:47.405Z,3.9
2018-11-14T02:07:49.699Z,4
2018-11-14T02:12:51.883Z,3.5
2018-11-14T02:22:56.532Z,5
2018-11-14T02:27:58.676Z,4.8
2018-11-14T02:33:01.084Z,4.4
2018-11-14T02:38:05.593Z,2.2
2018-11-14T02:43:05.731Z,4
2018-11-14T02:48:08.065Z,4.1
2018-11-14T02:53:10.203Z,3.6
2018-11-14T02:58:12.550Z,3.8
2018-11-14T03:03:14.986Z,2.3
2018-11-14T03:08:17.136Z,3.5
2018-11-14T03:13:19.441Z,2.7
2018-11-14T03:18:21.814Z,3.8
2018-11-14T03:23:24.085Z,3.5
2018-11-14T03:28:26.311Z,3
2018-11-14T03:33:28.620Z,4
2018-11-14T03:38:31.016Z,2.8
2018-11-14T03:43:33.295Z,4.1
2018-11-14T03:48:35.489Z,2.3
2018-11-14T03:53:37.724Z,4.3
2018-11-14T03:58:40.072Z,6.4
2018-11-14T04:03:42.448Z,2.3
2018-11-14T04:08:44.698Z,3.1
2018-11-14T04:13:47.065Z,3.6
2018-11-14T04:18:51.090Z,3
2018-11-14T04:23:51.628Z,1.9
2018-11-14T04:28:53.770Z,3.5
2018-11-14T04:33:56.146Z,5.2
2018-11-14T04:38:58.378Z,1.7
2018-11-14T04:44:00.908Z,3
2018-11-14T04:49:03.130Z,3.6
2018-11-14T04:54:05.236Z,3.4
2018-11-14T04:59:07.589Z,3
2018-11-14T05:04:09.856Z,4.5
2018-11-14T05:09:12.215Z,5.5
2018-11-14T05:14:14.480Z,3.8
2018-11-14T05:19:16.714Z,5.5
2018-11-14T05:24:19.102Z,3.5
2018-11-14T05:29:21.269Z,4.6
2018-11-14T05:34:23.617Z,3
2018-11-14T05:39:26.037Z,6.4
2018-11-14T05:44:28.317Z,7.1
2018-11-14T05:49:30.469Z,2.4
2018-11-14T05:54:32.897Z,3.5
2018-11-14T05:59:35.163Z,5.4
2018-11-14T06:04:41.514Z,5.4
2018-11-14T06:09:39.670Z,4
2018-11-14T06:14:42.002Z,4.2
2018-11-14T06:19:44.291Z,7.1
2018-11-14T06:24:46.632Z,4.9
2018-11-14T06:29:48.903Z,6
2018-11-14T06:34:51.225Z,6.1
2018-11-14T06:39:53.526Z,6.4
2018-11-14T06:44:55.768Z,5.1
2018-11-14T06:49:58.195Z,7.1
2018-11-14T06:55:00.397Z,6
2018-11-14T07:00:02.617Z,6.5
2018-11-14T07:05:05.859Z,5.1
2018-11-14T07:10:07.279Z,7.7
2018-11-14T07:15:09.432Z,5.5
2018-11-14T07:20:11.850Z,4.4
2018-11-14T07:25:14.194Z,5.9
2018-11-14T07:30:16.470Z,7
2018-11-14T07:35:20.419Z,4.5
2018-11-14T07:40:21.110Z,6
2018-11-14T07:45:23.280Z,4.7
2018-11-14T07:50:25.656Z,7.1
2018-11-14T07:55:27.955Z,5.4
2018-11-14T08:00:30.113Z,4.8
2018-11-14T08:05:32.580Z,6.8
2018-11-14T08:10:34.828Z,5.9
2018-11-14T08:15:37.199Z,5.9
2018-11-14T08:20:39.481Z,6.7
2018-11-14T08:25:41.662Z,3.9
2018-11-14T08:30:44.096Z,9.1
2018-11-14T08:35:47.511Z,7
2018-11-14T08:40:48.641Z,10.9
2018-11-14T08:45:51.027Z,6.9
2018-11-14T08:50:53.120Z,6.8
2018-11-14T08:55:55.459Z,7.6
2018-11-14T09:00:57.655Z,7.1
2018-11-14T09:06:00.080Z,6.9
2018-11-14T09:11:02.549Z,5.4
2018-11-14T09:16:06.482Z,6.9
2018-11-14T09:21:06.957Z,3.5
2018-11-14T09:26:09.151Z,6.5
2018-11-14T09:31:11.473Z,7.6
2018-11-14T09:36:13.824Z,4.6
2018-11-14T09:41:16.081Z,6
2018-11-14T09:46:18.401Z,4.8
2018-11-14T09:51:20.714Z,5.3
2018-11-14T09:56:22.944Z,4.3
2018-11-14T10:01:25.160Z,4
2018-11-14T10:06:27.639Z,8
2018-11-14T10:11:29.849Z,3.8
2018-11-14T10:16:32.054Z,4.9
2018-11-14T10:21:34.614Z,3.6
2018-11-14T10:26:36.731Z,4.7
2018-11-14T10:31:39.127Z,5.4
2018-11-14T10:36:41.251Z,3
2018-11-14T10:41:45.434Z,3.7
2018-11-14T10:46:45.848Z,4.8
2018-11-14T10:51:48.274Z,3.8
2018-11-14T10:56:50.416Z,3
2018-11-14T11:01:52.734Z,4.2
2018-11-14T11:06:55.061Z,3.4
2018-11-14T11:11:57.398Z,1.8
2018-11-14T11:16:59.674Z,4.1
2018-11-14T11:22:01.974Z,3
2018-11-14T11:27:04.310Z,2.6
2018-11-14T11:32:06.737Z,3.2
2018-11-14T11:37:08.798Z,2.1
2018-11-14T11:42:11.072Z,1.9
2018-11-14T11:47:13.541Z,3.4
2018-11-14T11:52:15.724Z,1.2
2018-11-14T11:57:23.905Z,2.8
2018-11-14T12:02:20.336Z,1.5
2018-11-14T12:07:22.598Z,2.3
2018-11-14T12:12:26.324Z,2.3
2018-11-14T12:17:27.240Z,1.2
2018-11-14T12:22:29.575Z,0.9
2018-11-14T12:27:32.857Z,1.8
2018-11-14T12:32:33.978Z,2
2018-11-14T12:37:36.418Z,1
2018-11-14T12:42:38.664Z,1.1
2018-11-14T12:47:41.011Z,0.9
2018-11-14T12:52:43.313Z,1.5
2018-11-14T12:57:45.468Z,0.7
2018-11-14T13:02:47.823Z,1.4
2018-11-14T13:07:50.127Z,1.4
2018-11-14T13:12:52.394Z,1
2018-11-14T13:17:54.740Z,0.8
2018-11-14T13:22:56.943Z,2
2018-11-14T13:27:59.317Z,0.9
2018-11-14T13:33:01.661Z,1.3
2018-11-14T13:38:03.971Z,0.7
2018-11-14T13:43:06.310Z,1.6
2018-11-14T13:48:08.446Z,1.1
2018-11-14T13:53:10.715Z,2
2018-11-14T13:58:13.151Z,1.1
2018-11-14T14:03:16.747Z,0.3
2018-11-14T14:08:17.675Z,1
2018-11-14T14:13:20.064Z,0.9
2018-11-14T14:18:22.187Z,0.2
2018-11-14T14:23:24.548Z,1.3
2018-11-14T14:28:26.897Z,1.8
2018-11-14T14:33:29.038Z,0.9
2018-11-14T14:38:31.374Z,1
2018-11-14T14:43:33.717Z,1.8
2018-11-14T14:48:36.168Z,1
2018-11-14T14:53:38.287Z,0.7
2018-11-14T14:58:40.544Z,1.8
2018-11-14T15:03:42.980Z,0.4
2018-11-14T15:08:45.107Z,1.1
2018-11-14T15:13:47.545Z,1.9
2018-11-14T15:18:49.693Z,1.1
2018-11-14T15:23:52.086Z,1.1
2018-11-14T15:28:54.492Z,0.6
2018-11-14T15:33:56.710Z,1.2
2018-11-14T15:38:59.149Z,1.3
2018-11-14T15:44:01.194Z,3
2018-11-14T15:49:03.632Z,2.9
2018-11-14T15:54:05.748Z,2.6
2018-11-14T15:59:08.047Z,1.5
2018-11-14T16:04:10.566Z,1.1
2018-11-14T16:09:12.716Z,2.2
2018-11-14T16:14:15.038Z,0.9
2018-11-14T16:19:17.480Z,2.2
2018-11-14T16:24:19.688Z,2.9
2018-11-14T16:34:24.131Z,2.9
2018-11-14T16:39:26.492Z,2.4
2018-11-14T16:44:28.928Z,6.3
2018-11-14T16:49:32.052Z,4.7
2018-11-14T16:54:33.271Z,5.6
2018-11-14T16:59:35.775Z,3.6
2018-11-14T17:04:37.946Z,3.2
2018-11-14T17:09:41.699Z,2.4
2018-11-14T17:14:45.207Z,3.8
2018-11-14T17:19:44.893Z,3.6
2018-11-14T17:24:47.122Z,3.4
2018-11-14T17:29:49.450Z,3.6
2018-11-14T17:34:51.722Z,4
2018-11-14T17:39:54.205Z,6.6
2018-11-14T17:44:56.320Z,4.9
2018-11-14T17:49:58.626Z,5.7
2018-11-14T17:55:00.958Z,5.4
2018-11-14T18:00:03.315Z,7.1
2018-11-14T18:05:05.563Z,5.2
2018-11-14T18:10:07.808Z,5.5
2018-11-14T18:15:10.082Z,7
2018-11-14T18:20:12.335Z,4.3
2018-11-14T18:25:14.731Z,6.2
2018-11-14T18:30:16.921Z,5.9
2018-11-14T18:35:19.184Z,5.8
2018-11-14T18:40:21.657Z,4.9
2018-11-14T18:45:23.916Z,5.8
2018-11-14T18:50:26.128Z,6.4
2018-11-14T18:55:28.484Z,8.6
2018-11-14T19:00:31.064Z,7.7
2018-11-14T19:05:33.004Z,8.5
2018-11-14T19:15:37.604Z,8.3
2018-11-14T19:20:39.881Z,8.1
2018-11-14T19:25:42.142Z,7.4
2018-11-14T19:30:44.528Z,7.8
2018-11-14T19:35:46.870Z,6.5
2018-11-14T19:40:49.134Z,8.5
2018-11-14T19:45:51.335Z,7.9
2018-11-14T19:50:53.775Z,10.2
2018-11-14T19:55:55.995Z,9.5
2018-11-14T20:01:03.943Z,7.7
2018-11-14T20:06:00.549Z,8.9
2018-11-14T20:11:02.811Z,6.9
2018-11-14T20:16:05.158Z,8.9
2018-11-14T20:21:07.609Z,8.4
2018-11-14T20:26:09.777Z,5.7
2018-11-14T20:31:12.002Z,7.6
2018-11-14T20:36:14.334Z,7.9
2018-11-14T20:41:16.681Z,9.4
2018-11-14T20:46:18.878Z,9
2018-11-14T20:51:21.202Z,8.8
2018-11-14T20:56:23.467Z,8.2
2018-11-14T21:01:25.849Z,8.6
2018-11-14T21:06:28.131Z,9.2
2018-11-14T21:11:30.366Z,7.8
2018-11-14T21:16:32.717Z,8.9
2018-11-14T21:21:34.915Z,8.3
2018-11-14T21:26:37.401Z,6.4
2018-11-14T21:31:40.473Z,7.1
2018-11-14T21:36:41.983Z,7.7
2018-11-14T21:41:44.052Z,6.6
2018-11-14T21:46:46.373Z,4.5
2018-11-14T21:51:48.775Z,8.4
2018-11-14T21:56:51.104Z,4.1
2018-11-14T22:01:53.852Z,5.1
2018-11-14T22:06:55.779Z,6.4
2018-11-14T22:11:57.807Z,7.3
2018-11-14T22:17:00.103Z,8.7
2018-11-14T22:22:02.493Z,10.7
2018-11-14T22:27:04.690Z,9.4
2018-11-14T22:32:07.181Z,13.9
2018-11-14T22:37:09.342Z,14.6
2018-11-14T22:42:12.929Z,12.8
2018-11-14T22:47:13.906Z,11.4
2018-11-14T22:52:16.417Z,11.9
2018-11-14T22:57:18.469Z,11.3
2018-11-14T23:02:20.818Z,9.7
2018-11-14T23:07:23.166Z,9.9
2018-11-14T23:12:25.370Z,10
2018-11-14T23:17:27.641Z,6.7
2018-11-14T23:22:30.054Z,9.4
2018-11-14T23:27:32.328Z,7
2018-11-14T23:32:34.660Z,7.3
2018-11-14T23:37:36.978Z,8.3
2018-11-14T23:42:39.234Z,6.8
2018-11-14T23:47:41.450Z,6.6
2018-11-14T23:52:43.745Z,9
2018-11-14T23:57:46.133Z,8
